Time;durP1;ratioP1;P1;durP2;ratioP2;P2;SDS_P1;SDS_P2;PMS_P1;PMS_P2;Temp;Humidity;BMP_temperature;BMP_pressure;BME280_temperature;BME280_humidity;BME280_pressure;Samples;Min_cycle;Max_cycle;Signal;HPM_P1;HPM_P2
2022/07/13 00:00:12;;;;;;;9.23;6.50;;;18.80;99.90;;;;;;5054367;28;20417;-25
2022/07/13 00:02:38;;;;;;;8.48;6.78;;;18.80;99.90;;;;;;5054820;28;20052;-25
2022/07/13 00:05:06;;;;;;;10.85;6.38;;;18.80;99.90;;;;;;5054237;28;20395;-25
2022/07/13 00:07:32;;;;;;;10.48;6.65;;;18.70;99.90;;;;;;5054252;28;20119;-25
2022/07/13 00:09:58;;;;;;;9.80;6.82;;;18.70;99.90;;;;;;5054141;28;20495;-25
2022/07/13 00:12:24;;;;;;;12.02;6.38;;;18.70;99.90;;;;;;5036556;28;20044;-25
2022/07/13 00:14:50;;;;;;;8.77;6.78;;;18.70;99.90;;;;;;5054052;28;20049;-25
2022/07/13 00:17:16;;;;;;;8.35;6.72;;;18.70;99.90;;;;;;5052881;28;20076;-25
2022/07/13 00:19:42;;;;;;;8.32;6.45;;;18.70;99.90;;;;;;5054608;28;20102;-25
2022/07/13 00:22:08;;;;;;;7.78;6.55;;;18.70;99.90;;;;;;5052684;28;20049;-25
2022/07/13 00:24:34;;;;;;;7.90;6.00;;;18.70;99.90;;;;;;5053944;28;20132;-25
2022/07/13 00:26:59;;;;;;;7.75;6.43;;;18.70;99.90;;;;;;5053688;28;20438;-25
2022/07/13 00:29:25;;;;;;;6.97;6.22;;;18.70;99.90;;;;;;5054150;28;20060;-25
2022/07/13 00:31:50;;;;;;;7.30;6.65;;;18.80;99.90;;;;;;5052689;28;20040;-25
2022/07/13 00:34:16;;;;;;;7.45;6.68;;;18.80;99.90;;;;;;5053681;28;20483;-25
2022/07/13 00:36:42;;;;;;;6.88;6.10;;;18.80;99.90;;;;;;5053759;28;20091;-25
2022/07/13 00:39:07;;;;;;;8.30;6.22;;;18.80;99.90;;;;;;5053734;28;20051;-25
2022/07/13 00:41:33;;;;;;;7.88;6.22;;;18.90;99.90;;;;;;5053933;28;20071;-25
2022/07/13 00:44:09;;;;;;;7.95;6.28;;;18.90;99.90;;;;;;5052949;28;20099;-25
2022/07/13 00:46:36;;;;;;;6.45;5.70;;;18.90;99.90;;;;;;5053639;28;20084;-25
2022/07/13 00:49:03;;;;;;;7.70;6.00;;;19.00;99.90;;;;;;5054409;28;20123;-25
2022/07/13 00:51:29;;;;;;;8.45;5.93;;;19.00;92.40;;;;;;5053594;28;20068;-25
2022/07/13 00:53:55;;;;;;;9.65;5.60;;;19.00;68.10;;;;;;5053704;28;20498;-25
2022/07/13 00:56:22;;;;;;;6.30;5.70;;;19.10;52.30;;;;;;5053743;28;20505;-25
2022/07/13 00:58:49;;;;;;;6.00;5.47;;;19.10;39.40;;;;;;5053499;28;20178;-25
2022/07/13 01:01:15;;;;;;;7.07;5.70;;;19.10;21.40;;;;;;5053519;28;20057;-25
2022/07/13 01:03:40;;;;;;;7.85;5.63;;;19.10;12.80;;;;;;5053905;28;20045;-25
2022/07/13 01:06:07;;;;;;;8.45;5.95;;;19.10;1.00;;;;;;5053451;28;20474;-25
2022/07/13 01:08:34;;;;;;;5.97;5.43;;;19.20;1.00;;;;;;5053406;28;20041;-25
2022/07/13 01:11:00;;;;;;;8.93;5.85;;;19.20;1.00;;;;;;5053906;28;20053;-25
2022/07/13 01:13:27;;;;;;;6.35;5.72;;;19.20;1.00;;;;;;5035653;28;20052;-25
2022/07/13 01:15:52;;;;;;;8.27;5.82;;;19.20;1.00;;;;;;5053441;28;20056;-25
2022/07/13 01:18:18;;;;;;;8.57;5.60;;;19.20;1.00;;;;;;5053366;28;20053;-25
2022/07/13 01:20:44;;;;;;;8.60;5.78;;;19.20;1.00;;;;;;5036188;28;20084;-25
2022/07/13 01:23:12;;;;;;;8.80;6.25;;;19.30;1.00;;;;;;5053306;28;20470;-25
2022/07/13 01:25:39;;;;;;;6.35;5.40;;;19.30;1.00;;;;;;5053827;28;20044;-25
2022/07/13 01:28:04;;;;;;;6.90;6.00;;;19.20;1.00;;;;;;5052655;28;20110;-25
2022/07/13 01:30:30;;;;;;;7.68;5.80;;;19.20;1.00;;;;;;5052947;28;20128;-25
2022/07/13 01:32:56;;;;;;;7.30;6.03;;;19.30;1.00;;;;;;5052841;28;20134;-25
2022/07/13 01:35:23;;;;;;;10.15;5.88;;;19.20;1.00;;;;;;5053453;28;20048;-25
2022/07/13 01:37:49;;;;;;;7.35;6.65;;;19.20;1.00;;;;;;5053479;28;20462;-25
2022/07/13 01:40:15;;;;;;;8.60;7.30;;;19.20;1.00;;;;;;5056939;28;20045;-25
2022/07/13 01:42:51;;;;;;;7.40;6.70;;;19.10;1.00;;;;;;5057472;28;20037;-25
2022/07/13 01:45:19;;;;;;;8.00;7.03;;;19.10;5.60;;;;;;5057231;28;20041;-25
2022/07/13 01:47:49;;;;;;;8.95;7.72;;;19.10;27.00;;;;;;5056762;28;20052;-25
2022/07/13 01:50:19;;;;;;;9.75;7.45;;;19.10;32.80;;;;;;5055726;28;20049;-25
2022/07/13 01:52:45;;;;;;;14.18;7.80;;;19.10;42.20;;;;;;5056691;28;20045;-25
2022/07/13 01:55:12;;;;;;;14.35;8.68;;;19.10;23.70;;;;;;5056801;28;20049;-25
2022/07/13 01:57:39;;;;;;;10.13;8.68;;;19.10;16.40;;;;;;5056670;28;20049;-25
2022/07/13 02:00:13;;;;;;;10.52;8.75;;;19.10;1.00;;;;;;5056319;28;20580;-25
2022/07/13 02:02:39;;;;;;;9.80;8.55;;;19.20;1.00;;;;;;5056639;28;20044;-25
2022/07/13 02:05:06;;;;;;;11.55;8.15;;;19.20;1.00;;;;;;5056601;28;20395;-25
2022/07/13 02:07:32;;;;;;;9.00;8.10;;;19.30;1.00;;;;;;5056496;28;20048;-25
2022/07/13 02:09:58;;;;;;;10.27;8.73;;;19.50;1.00;;;;;;5056417;28;20052;-25
2022/07/13 02:12:23;;;;;;;8.00;7.20;;;19.60;99.90;;;;;;5056613;28;20098;-25
2022/07/13 02:14:49;;;;;;;9.13;8.23;;;19.60;99.90;;;;;;5056640;28;20049;-25
2022/07/13 02:17:15;;;;;;;8.40;7.55;;;19.70;99.90;;;;;;5056052;28;20061;-25
2022/07/13 02:19:40;;;;;;;12.18;9.00;;;19.70;99.90;;;;;;5056315;28;20057;-25
2022/07/13 02:22:07;;;;;;;8.43;7.63;;;19.70;99.90;;;;;;5056124;28;20056;-25
2022/07/13 02:24:34;;;;;;;10.32;9.13;;;19.70;99.90;;;;;;5056134;28;20102;-25
2022/07/13 02:27:00;;;;;;;10.95;8.18;;;19.70;99.90;;;;;;5056109;28;20051;-25
2022/07/13 02:29:25;;;;;;;11.90;9.32;;;19.70;99.90;;;;;;5056083;28;20041;-25
2022/07/13 02:31:51;;;;;;;9.75;8.70;;;19.70;99.90;;;;;;5056018;28;20041;-25
2022/07/13 02:34:17;;;;;;;11.05;9.27;;;19.60;99.90;;;;;;5056703;28;20049;-25
2022/07/13 02:36:43;;;;;;;11.50;8.27;;;19.60;99.90;;;;;;5056477;28;20496;-25
2022/07/13 02:39:09;;;;;;;10.75;8.43;;;19.60;99.90;;;;;;5055912;28;20081;-25
2022/07/13 02:41:34;;;;;;;10.77;8.77;;;19.60;99.90;;;;;;5055852;28;20386;-25
2022/07/13 02:44:00;;;;;;;12.20;9.65;;;19.70;99.90;;;;;;5055801;28;20040;-25
2022/07/13 02:46:26;;;;;;;9.93;8.90;;;19.70;99.90;;;;;;5055439;28;20049;-25
2022/07/13 02:48:52;;;;;;;10.07;8.95;;;19.60;99.90;;;;;;5055620;28;20052;-26
2022/07/13 02:51:18;;;;;;;12.32;9.23;;;19.60;99.90;;;;;;5054728;28;20383;-25
2022/07/13 02:53:43;;;;;;;11.35;8.60;;;19.60;99.90;;;;;;5054403;28;20045;-25
2022/07/13 02:56:09;;;;;;;10.00;9.00;;;19.60;99.90;;;;;;5055555;28;20045;-25
2022/07/13 02:58:35;;;;;;;11.43;8.73;;;19.60;99.90;;;;;;5055517;28;20045;-25
2022/07/13 03:01:00;;;;;;;10.18;9.18;;;19.60;99.90;;;;;;5055765;28;20471;-25
2022/07/13 03:03:26;;;;;;;13.30;10.15;;;19.60;99.90;;;;;;5055716;28;20041;-25
2022/07/13 03:05:52;;;;;;;10.73;8.07;;;19.60;99.90;;;;;;5055102;28;20176;-25
2022/07/13 03:08:18;;;;;;;9.82;8.98;;;19.50;99.90;;;;;;5054943;28;20056;-25
2022/07/13 03:10:45;;;;;;;10.00;8.93;;;19.50;99.90;;;;;;5055385;28;20053;-25
2022/07/13 03:13:10;;;;;;;10.45;9.35;;;19.50;99.90;;;;;;5055753;28;20064;-25
2022/07/13 03:15:36;;;;;;;8.57;7.75;;;19.50;99.90;;;;;;5054098;28;20467;-25
2022/07/13 03:18:02;;;;;;;10.30;9.30;;;19.50;99.90;;;;;;5055397;28;20470;-25
2022/07/13 03:20:28;;;;;;;10.90;9.80;;;19.50;99.90;;;;;;5055048;28;20047;-25
2022/07/13 03:22:53;;;;;;;10.35;9.32;;;19.50;99.90;;;;;;5055091;28;20041;-25
2022/07/13 03:25:19;;;;;;;13.07;9.43;;;19.50;99.90;;;;;;5054344;28;20092;-25
2022/07/13 03:27:45;;;;;;;11.48;10.02;;;19.40;99.90;;;;;;5054987;28;20041;-25
2022/07/13 03:30:10;;;;;;;11.95;9.88;;;19.40;99.90;;;;;;5054928;28;20047;-25
2022/07/13 03:32:36;;;;;;;9.50;8.50;;;19.40;99.90;;;;;;5053630;28;20045;-25
2022/07/13 03:35:02;;;;;;;10.80;9.27;;;19.30;99.90;;;;;;5054836;28;20223;-25
2022/07/13 03:37:28;;;;;;;10.60;9.50;;;19.30;99.90;;;;;;5054474;28;20632;-25
2022/07/13 03:39:54;;;;;;;10.63;9.52;;;19.30;99.90;;;;;;5053594;28;20076;-24
2022/07/13 03:42:20;;;;;;;10.93;8.60;;;19.30;99.90;;;;;;5053486;28;20075;-25
2022/07/13 03:44:46;;;;;;;9.43;8.35;;;19.30;99.90;;;;;;5055177;28;20106;-25
2022/07/13 03:47:12;;;;;;;10.57;9.02;;;19.40;99.90;;;;;;5055134;28;20041;-25
2022/07/13 03:49:38;;;;;;;11.65;10.10;;;19.40;99.90;;;;;;5054828;28;20045;-25
2022/07/13 03:52:03;;;;;;;10.45;9.05;;;19.40;99.90;;;;;;5054448;28;20045;-25
2022/07/13 03:54:29;;;;;;;11.13;9.35;;;19.40;99.90;;;;;;5054459;28;20128;-25
2022/07/13 03:56:55;;;;;;;9.52;8.30;;;19.40;99.90;;;;;;5053766;28;20041;-25
2022/07/13 03:59:20;;;;;;;10.88;9.43;;;19.40;99.90;;;;;;5055196;28;20044;-25
2022/07/13 04:01:46;;;;;;;11.20;8.80;;;19.40;99.90;;;;;;5053835;28;20501;-25
2022/07/13 04:04:12;;;;;;;9.88;8.30;;;19.40;99.90;;;;;;5054234;28;20041;-25
2022/07/13 04:06:37;;;;;;;10.23;9.20;;;19.40;99.90;;;;;;5054725;28;20041;-25
2022/07/13 04:09:04;;;;;;;9.57;8.63;;;19.40;99.90;;;;;;5054208;28;20076;-25
2022/07/13 04:11:29;;;;;;;9.45;8.55;;;19.40;99.90;;;;;;5053857;28;20459;-25
2022/07/13 04:13:55;;;;;;;10.32;8.77;;;19.40;99.90;;;;;;5054565;28;20080;-25
2022/07/13 04:16:21;;;;;;;11.38;9.05;;;19.40;99.90;;;;;;5054060;28;20044;-25
2022/07/13 04:18:47;;;;;;;11.07;9.10;;;19.40;99.90;;;;;;5054335;28;20053;-25
2022/07/13 04:21:14;;;;;;;9.00;7.97;;;19.40;99.90;;;;;;5054190;28;20115;-25
2022/07/13 04:23:40;;;;;;;12.25;10.15;;;19.50;99.90;;;;;;5053980;28;20045;-25
2022/07/13 04:26:06;;;;;;;13.90;8.75;;;19.50;99.90;;;;;;5053893;28;20048;-25
2022/07/13 04:28:32;;;;;;;11.02;8.93;;;19.60;99.90;;;;;;5053151;28;20052;-25
2022/07/13 04:30:58;;;;;;;11.68;8.85;;;19.60;99.90;;;;;;5052711;28;20049;-25
2022/07/13 04:33:24;;;;;;;10.52;8.57;;;19.60;99.90;;;;;;5053740;28;20047;-25
2022/07/13 04:35:49;;;;;;;9.77;8.77;;;19.70;99.90;;;;;;5052559;28;20045;-25
2022/07/13 04:38:15;;;;;;;9.88;8.88;;;19.70;99.90;;;;;;5052761;28;20057;-25
2022/07/13 04:40:41;;;;;;;11.10;10.00;;;19.80;99.90;;;;;;5052618;28;20128;-25
2022/07/13 04:43:07;;;;;;;11.05;9.35;;;19.80;99.90;;;;;;5053669;28;20124;-25
2022/07/13 04:45:33;;;;;;;12.23;9.68;;;19.90;99.90;;;;;;5052663;28;20103;-25
2022/07/13 04:47:59;;;;;;;10.15;9.25;;;19.90;99.90;;;;;;5052118;28;20086;-25
2022/07/13 04:50:25;;;;;;;11.38;9.40;;;19.90;99.90;;;;;;5053606;28;20124;-25
2022/07/13 04:52:51;;;;;;;11.02;9.77;;;20.00;99.90;;;;;;5053508;28;20132;-25
2022/07/13 04:55:17;;;;;;;10.90;9.40;;;20.00;99.90;;;;;;5053546;28;20045;-25
2022/07/13 04:57:43;;;;;;;11.05;9.45;;;20.00;99.90;;;;;;5053778;28;20052;-25
2022/07/13 05:00:09;;;;;;;11.57;9.68;;;20.00;99.90;;;;;;5054054;28;20110;-25
2022/07/13 05:02:35;;;;;;;11.55;9.82;;;20.00;99.90;;;;;;5053441;28;20049;-25
2022/07/13 05:05:02;;;;;;;12.68;10.57;;;20.00;99.90;;;;;;5053477;28;20041;-25
2022/07/13 05:07:29;;;;;;;12.60;11.32;;;19.90;99.90;;;;;;5053435;28;20087;-25
2022/07/13 05:09:55;;;;;;;13.50;11.55;;;19.90;99.90;;;;;;5053709;28;20418;-25
2022/07/13 05:12:21;;;;;;;12.63;11.18;;;19.90;99.90;;;;;;5052664;28;20045;-25
2022/07/13 05:14:47;;;;;;;12.48;11.20;;;19.80;99.90;;;;;;5055907;28;20090;-25
2022/07/13 05:17:12;;;;;;;14.82;11.65;;;19.70;99.90;;;;;;5057811;28;20394;-25
2022/07/13 05:19:38;;;;;;;15.30;12.25;;;19.70;1.00;;;;;;5057504;28;20146;-25
2022/07/13 05:22:04;;;;;;;17.20;11.25;;;19.60;1.00;;;;;;5056280;28;20049;-25
2022/07/13 05:24:30;;;;;;;14.55;10.93;;;19.50;1.00;;;;;;5056978;28;20041;-25
2022/07/13 05:26:55;;;;;;;11.75;10.63;;;19.50;1.00;;;;;;5057295;28;20053;-25
2022/07/13 05:29:21;;;;;;;12.98;10.57;;;19.50;1.00;;;;;;5057252;28;20391;-25
2022/07/13 05:31:47;;;;;;;14.75;11.60;;;19.50;1.00;;;;;;5057146;28;20048;-25
2022/07/13 05:34:13;;;;;;;15.75;12.00;;;19.50;1.00;;;;;;5057565;28;20049;-25
2022/07/13 05:36:38;;;;;;;15.55;11.88;;;19.60;1.00;;;;;;5057322;28;20114;-25
2022/07/13 05:39:04;;;;;;;13.45;11.77;;;19.60;1.00;;;;;;5057031;28;20045;-25
2022/07/13 05:41:32;;;;;;;15.68;11.13;;;19.60;19.50;;;;;;5056854;28;20049;-25
2022/07/13 05:43:59;;;;;;;16.17;12.45;;;19.60;99.90;;;;;;5055962;28;20140;-25
2022/07/13 05:46:25;;;;;;;13.95;12.20;;;19.60;99.90;;;;;;5057449;28;20056;-25
2022/07/13 05:48:51;;;;;;;12.95;11.65;;;19.60;99.90;;;;;;5057406;28;20049;-25
2022/07/13 05:51:17;;;;;;;13.93;12.52;;;19.70;99.90;;;;;;5057352;28;20045;-25
2022/07/13 05:53:42;;;;;;;18.38;12.80;;;19.70;99.90;;;;;;5055836;28;20084;-25
2022/07/13 05:56:09;;;;;;;13.15;11.38;;;19.80;99.90;;;;;;5056727;28;20445;-25
2022/07/13 05:58:35;;;;;;;13.82;11.68;;;19.80;99.90;;;;;;5056677;28;20052;-25
2022/07/13 06:01:01;;;;;;;13.40;11.77;;;19.90;99.90;;;;;;5056657;28;20049;-25
2022/07/13 06:03:27;;;;;;;13.05;11.75;;;20.00;99.90;;;;;;5056578;28;20128;-25
2022/07/13 06:05:53;;;;;;;12.95;10.73;;;20.10;99.90;;;;;;5057063;28;20057;-25
2022/07/13 06:08:18;;;;;;;14.55;9.88;;;20.20;99.90;;;;;;5057317;28;20360;-25
2022/07/13 06:10:44;;;;;;;13.65;10.70;;;20.30;99.90;;;;;;5056721;28;20095;-25
2022/07/13 06:13:10;;;;;;;14.75;9.07;;;20.40;99.90;;;;;;5056396;28;20479;-25
2022/07/13 06:15:36;;;;;;;15.35;9.05;;;20.50;99.90;;;;;;5056324;28;20091;-25
2022/07/13 06:18:02;;;;;;;13.35;7.75;;;20.50;99.90;;;;;;5055041;28;20067;-25
2022/07/13 06:20:28;;;;;;;11.15;7.07;;;20.60;99.90;;;;;;5056156;28;20128;-26
2022/07/13 06:23:12;;;;;;;12.07;7.85;;;20.70;99.90;;;;;;5056232;28;20049;-26
2022/07/13 06:25:41;;;;;;;10.13;7.15;;;20.80;65.00;;;;;;5056054;28;20413;-25
2022/07/13 06:28:07;;;;;;;12.18;7.38;;;20.90;1.00;;;;;;5056116;28;20475;-25
2022/07/13 06:30:36;;;;;;;15.75;7.85;;;21.00;1.00;;;;;;5056086;28;20056;-27
2022/07/13 06:33:02;;;;;;;11.68;8.65;;;21.00;1.00;;;;;;5056214;28;20107;-26
2022/07/13 06:35:29;;;;;;;14.07;8.20;;;21.00;1.00;;;;;;5056313;28;20074;-25
2022/07/13 06:37:55;;;;;;;10.50;7.88;;;21.80;1.00;;;;;;5056224;28;20056;-25
2022/07/13 06:40:21;;;;;;;10.32;8.02;;;22.40;99.90;;;;;;5055893;28;20483;-25
2022/07/13 06:42:47;;;;;;;12.32;9.45;;;22.70;99.90;;;;;;5056451;28;20076;-25
2022/07/13 06:45:14;;;;;;;18.13;10.48;;;23.00;1.00;;;;;;5056021;28;20437;-25
2022/07/13 06:47:40;;;;;;;13.10;9.90;;;23.40;1.00;;;;;;5056300;28;20049;-25
2022/07/13 06:50:07;;;;;;;19.75;11.43;;;23.80;99.90;;;;;;5056333;28;20056;-26
2022/07/13 06:52:33;;;;;;;14.82;10.85;;;24.10;99.90;;;;;;5055585;28;20081;-25
2022/07/13 06:55:00;;;;;;;19.05;12.13;;;24.20;99.90;;;;;;5055658;28;20076;-25
2022/07/13 06:57:26;;;;;;;19.02;12.27;;;24.30;99.90;;;;;;5038204;28;20064;-25
2022/07/13 06:59:52;;;;;;;16.73;13.48;;;24.40;1.00;;;;;;5054895;28;20475;-25
2022/07/13 07:02:17;;;;;;;17.48;14.45;;;24.20;99.90;;;;;;5055494;28;20076;-25
2022/07/13 07:04:43;;;;;;;15.13;13.25;;;24.10;99.90;;;;;;5054280;28;20479;-25
2022/07/13 07:07:09;;;;;;;14.85;12.13;;;24.20;99.90;;;;;;5054995;28;20438;-25
2022/07/13 07:09:35;;;;;;;18.95;14.82;;;24.20;99.90;;;;;;5054741;28;20442;-25
2022/07/13 07:12:01;;;;;;;19.30;14.35;;;24.50;99.90;;;;;;5055009;28;20559;-25
2022/07/13 07:14:32;;;;;;;17.80;15.32;;;24.60;99.90;;;;;;5054843;28;20041;-25
2022/07/13 07:16:58;;;;;;;16.70;13.90;;;24.40;99.90;;;;;;5055030;28;20059;-25
2022/07/13 07:19:24;;;;;;;22.02;15.35;;;24.40;99.90;;;;;;5055219;28;20081;-25
2022/07/13 07:21:50;;;;;;;22.33;17.13;;;24.50;99.90;;;;;;5054987;28;20052;-25
2022/07/13 07:24:16;;;;;;;20.08;14.88;;;24.40;99.90;;;;;;5055097;28;20099;-25
2022/07/13 07:26:41;;;;;;;23.92;15.13;;;24.50;99.90;;;;;;5053762;28;20044;-25
2022/07/13 07:29:07;;;;;;;21.33;15.98;;;24.70;99.90;;;;;;5054983;28;20096;-25
2022/07/13 07:31:33;;;;;;;18.25;16.00;;;24.80;1.00;;;;;;5055758;28;20067;-25
2022/07/13 07:33:58;;;;;;;17.58;14.48;;;25.00;1.00;;;;;;5053632;28;20478;-25
2022/07/13 07:36:24;;;;;;;23.52;15.77;;;25.30;1.00;;;;;;5053395;28;20048;-25
2022/07/13 07:38:50;;;;;;;19.33;16.40;;;25.40;1.00;;;;;;5055348;28;20472;-25
2022/07/13 07:41:16;;;;;;;18.85;13.95;;;25.50;1.00;;;;;;5055564;28;20055;-25
2022/07/13 07:43:41;;;;;;;20.23;14.60;;;25.60;1.00;;;;;;5054721;28;20483;-25
2022/07/13 07:46:07;;;;;;;15.70;12.30;;;25.60;1.00;;;;;;5054622;28;20502;-25
2022/07/13 07:48:33;;;;;;;18.25;13.90;;;25.80;1.00;;;;;;5054562;28;20051;-25
2022/07/13 07:50:58;;;;;;;20.42;14.70;;;25.60;1.00;;;;;;5054583;28;20047;-25
2022/07/13 07:53:25;;;;;;;20.27;11.85;;;25.80;1.00;;;;;;5054986;28;20063;-25
2022/07/13 07:55:50;;;;;;;18.15;13.25;;;25.80;99.90;;;;;;5054919;28;20045;-25
2022/07/13 07:58:16;;;;;;;16.05;12.27;;;26.00;99.90;;;;;;5054418;28;20041;-25
2022/07/13 08:00:42;;;;;;;22.40;13.35;;;26.30;99.90;;;;;;5053687;28;20105;-25
2022/07/13 08:03:09;;;;;;;19.23;13.88;;;26.50;75.70;;;;;;5055103;28;20126;-25
2022/07/13 08:05:35;;;;;;;18.65;11.85;;;26.50;8.20;;;;;;5053033;28;20187;-26
2022/07/13 08:08:01;;;;;;;18.55;11.75;;;26.50;1.00;;;;;;5054553;28;20049;-25
2022/07/13 08:10:27;;;;;;;16.92;10.98;;;26.30;99.90;;;;;;5054199;28;20052;-25
2022/07/13 08:12:53;;;;;;;15.75;11.95;;;26.40;1.00;;;;;;5054620;28;20040;-25
2022/07/13 08:15:20;;;;;;;16.35;11.77;;;26.30;1.00;;;;;;5052935;28;20084;-25
2022/07/13 08:17:46;;;;;;;15.15;10.70;;;26.40;1.00;;;;;;5054155;28;20065;-25
2022/07/13 08:20:12;;;;;;;14.02;10.57;;;26.50;1.00;;;;;;5054444;28;20052;-25
2022/07/13 08:22:39;;;;;;;17.40;9.85;;;26.80;1.00;;;;;;5053041;28;20434;-25
2022/07/13 08:25:05;;;;;;;10.85;8.85;;;26.90;99.90;;;;;;5053977;28;20080;-25
2022/07/13 08:27:32;;;;;;;14.40;9.10;;;27.00;99.90;;;;;;5053932;28;20152;-25
2022/07/13 08:29:59;;;;;;;14.57;8.95;;;27.00;99.90;;;;;;5053845;28;20084;-25
2022/07/13 08:32:25;;;;;;;11.60;8.50;;;27.20;99.90;;;;;;5054341;28;20045;-25
2022/07/13 08:40:20;;;;;;;13.55;9.27;;;27.30;99.90;;;;;;5054070;28;20049;-25
2022/07/13 08:42:47;;;;;;;14.10;8.32;;;27.40;7.70;;;;;;5054278;28;20045;-25
2022/07/13 08:45:13;;;;;;;11.02;5.70;;;27.60;99.90;;;;;;5052225;28;20421;-25
2022/07/13 08:47:41;;;;;;;9.63;6.75;;;27.70;99.90;;;;;;5054322;28;20132;-25
2022/07/13 08:50:09;;;;;;;8.70;6.65;;;27.70;99.90;;;;;;5052427;28;20051;-25
2022/07/13 08:52:38;;;;;;;14.10;8.80;;;27.80;99.90;;;;;;5053518;28;20056;-25
2022/07/13 08:55:05;;;;;;;9.90;7.90;;;27.60;1.00;;;;;;5052449;28;20092;-25
2022/07/13 08:57:36;;;;;;;15.32;9.15;;;27.70;99.90;;;;;;5053582;28;20075;-25
2022/07/13 09:00:05;;;;;;;11.48;7.22;;;27.40;99.90;;;;;;5053513;28;20048;-25
2022/07/13 09:02:31;;;;;;;5.30;3.70;;;27.70;1.00;;;;;;5035944;28;20057;-25
2022/07/13 09:04:58;;;;;;;9.02;6.28;;;28.20;1.00;;;;;;5052559;28;20493;-26
2022/07/13 09:07:24;;;;;;;9.32;4.22;;;28.40;1.00;;;;;;5052470;28;20060;-26
2022/07/13 09:09:56;;;;;;;4.93;3.30;;;28.40;99.90;;;;;;5052247;28;20045;-25
2022/07/13 09:12:24;;;;;;;4.15;2.83;;;28.10;99.90;;;;;;5053400;28;20084;-25
2022/07/13 09:14:51;;;;;;;6.57;2.05;;;28.10;99.90;;;;;;5053358;28;20049;-25
2022/07/13 09:17:32;;;;;;;4.80;2.40;;;27.80;1.00;;;;;;5053280;28;20133;-25
2022/07/13 09:20:03;;;;;;;5.32;1.85;;;27.80;46.70;;;;;;5052644;28;20131;-26
2022/07/13 09:22:28;;;;;;;2.65;1.98;;;27.70;1.00;;;;;;5054199;28;20045;-26
2022/07/13 09:24:54;;;;;;;3.60;2.10;;;28.00;1.00;;;;;;5053250;28;20457;-26
2022/07/13 09:27:21;;;;;;;4.80;2.33;;;28.30;1.00;;;;;;5051986;28;20037;-25
2022/07/13 09:29:47;;;;;;;4.57;1.98;;;28.60;1.00;;;;;;5053229;28;20045;-26
2022/07/13 09:32:13;;;;;;;4.38;2.20;;;28.40;1.00;;;;;;5021761;28;20075;-26
2022/07/13 09:34:48;;;;;;;7.72;2.60;;;28.40;1.00;;;;;;5062476;28;20048;-25
2022/07/13 09:37:31;;;;;;;4.28;2.03;;;28.10;1.00;;;;;;5072811;28;20048;-25
2022/07/13 09:39:56;;;;;;;7.70;1.90;;;28.10;99.90;;;;;;5066244;28;20071;-26
2022/07/13 09:42:26;;;;;;;6.10;2.60;;;28.30;1.00;;;;;;5060606;28;20486;-26
2022/07/13 09:47:49;;;;;;;5.57;3.42;;;27.90;1.00;;;;;;5052975;28;20436;-26
2022/07/13 09:50:19;;;;;;;6.97;3.20;;;27.70;2.40;;;;;;5052314;28;20052;-26
2022/07/13 09:52:46;;;;;;;5.15;2.97;;;27.70;99.90;;;;;;5053188;28;20120;-26
2022/07/13 09:55:15;;;;;;;6.25;3.17;;;27.50;99.90;;;;;;5054857;28;20052;-26
2022/07/13 09:57:50;;;;;;;3.78;2.60;;;27.30;90.30;;;;;;5052992;28;20052;-26
2022/07/13 10:00:20;;;;;;;3.35;2.10;;;27.30;87.30;;;;;;5054840;28;20546;-26
2022/07/13 10:02:49;;;;;;;3.70;1.63;;;27.30;1.00;;;;;;5055418;28;20043;-26
2022/07/13 10:05:17;;;;;;;2.90;1.52;;;27.30;99.90;;;;;;5040967;28;20048;-26
2022/07/13 10:07:44;;;;;;;4.93;1.52;;;27.40;99.90;;;;;;5058248;28;20040;-27
2022/07/13 10:10:15;;;;;;;3.95;1.30;;;27.30;99.90;;;;;;5056975;28;20049;-26
2022/07/13 10:12:42;;;;;;;2.83;1.45;;;27.10;99.90;;;;;;5056067;28;20175;-26
2022/07/13 10:15:10;;;;;;;2.90;1.10;;;27.00;99.90;;;;;;5067354;28;20048;-26
2022/07/13 10:17:37;;;;;;;6.00;2.05;;;26.90;99.90;;;;;;5068840;28;20064;-26
2022/07/13 10:20:24;;;;;;;3.97;1.33;;;27.20;1.00;;;;;;5073833;28;20056;-26
2022/07/13 10:22:51;;;;;;;5.90;2.00;;;27.50;99.90;;;;;;5076384;28;20040;-26
2022/07/13 10:25:17;;;;;;;5.53;1.85;;;27.50;99.90;;;;;;5077268;28;20126;-26
2022/07/13 10:27:44;;;;;;;1.85;1.30;;;27.50;99.90;;;;;;5075078;28;20479;-26
2022/07/13 10:30:17;;;;;;;1.95;1.20;;;27.80;1.00;;;;;;5076826;28;20044;-26
2022/07/13 10:32:42;;;;;;;1.83;1.00;;;27.80;99.90;;;;;;5076638;28;20044;-26
2022/07/13 10:35:13;;;;;;;2.53;1.10;;;27.60;99.90;;;;;;5076129;28;20044;-26
2022/07/13 10:38:00;;;;;;;3.15;1.20;;;27.60;99.90;;;;;;5076583;28;20131;-26
2022/07/13 10:40:27;;;;;;;3.08;1.23;;;27.70;99.90;;;;;;5076498;28;20044;-26
2022/07/13 10:42:57;;;;;;;3.25;1.90;;;27.80;99.90;;;;;;5075887;28;20567;-27
2022/07/13 10:45:51;;;;;;;5.95;1.33;;;27.80;99.90;;;;;;5074622;28;20053;-26
2022/07/13 10:48:18;;;;;;;9.13;1.70;;;27.30;99.90;;;;;;5076138;28;20421;-26
2022/07/13 10:50:45;;;;;;;2.92;0.90;;;27.40;99.90;;;;;;5076570;28;20052;-26
2022/07/13 10:53:11;;;;;;;2.28;0.90;;;27.30;99.90;;;;;;5074458;28;20048;-26
2022/07/13 10:55:46;;;;;;;3.55;1.25;;;26.90;99.90;;;;;;5075497;28;20155;-27
2022/07/13 10:58:29;;;;;;;2.08;1.05;;;26.80;99.90;;;;;;5074993;28;20044;-26
2022/07/13 11:00:56;;;;;;;1.48;0.70;;;26.60;99.90;;;;;;5075227;28;20453;-26
2022/07/13 11:03:38;;;;;;;1.65;0.93;;;26.50;99.90;;;;;;5057571;28;20429;-27
2022/07/13 11:06:08;;;;;;;3.60;1.67;;;26.50;99.90;;;;;;5074852;28;20055;-26
2022/07/13 11:08:37;;;;;;;4.60;1.00;;;26.60;99.90;;;;;;5075420;28;20040;-26
2022/07/13 11:11:11;;;;;;;3.50;1.38;;;26.50;99.90;;;;;;5074923;28;20103;-26
2022/07/13 11:13:37;;;;;;;2.65;1.75;;;26.70;99.90;;;;;;5073570;28;20094;-27
2022/07/13 11:16:05;;;;;;;3.40;1.50;;;26.70;1.00;;;;;;5058094;28;20059;-27
2022/07/13 11:18:33;;;;;;;3.05;1.08;;;26.70;1.00;;;;;;5074596;28;20544;-26
2022/07/13 11:21:10;;;;;;;3.63;1.50;;;26.90;99.90;;;;;;5063229;28;20056;-27
2022/07/13 11:26:38;;;;;;;3.25;1.80;;;27.00;7.60;;;;;;5055021;28;20088;-28
2022/07/13 11:29:31;;;;;;;7.50;1.83;;;26.90;1.00;;;;;;5065618;28;20059;-26
2022/07/13 11:31:59;;;;;;;5.65;1.60;;;26.60;1.00;;;;;;5066169;28;20048;-28
2022/07/13 11:34:26;;;;;;;3.80;1.80;;;26.20;8.60;;;;;;5060887;28;20032;-26
2022/07/13 11:36:58;;;;;;;2.83;2.00;;;25.70;99.90;;;;;;5062305;28;20047;-26
2022/07/13 11:39:32;;;;;;;4.47;2.53;;;25.50;1.00;;;;;;5053839;28;20084;-26
2022/07/13 11:41:59;;;;;;;6.18;2.50;;;24.90;95.60;;;;;;5060455;28;20123;-26
2022/07/13 11:44:27;;;;;;;3.63;1.80;;;24.70;99.90;;;;;;5073543;28;20379;-26
2022/07/13 11:46:56;;;;;;;3.60;2.00;;;25.00;99.90;;;;;;5067764;28;20099;-27
2022/07/13 11:49:24;;;;;;;3.95;2.15;;;24.90;99.90;;;;;;5061165;28;20036;-27
2022/07/13 11:51:51;;;;;;;4.70;2.60;;;25.10;99.90;;;;;;5072913;28;20055;-27
2022/07/13 11:54:19;;;;;;;7.90;2.63;;;25.30;99.90;;;;;;5063952;28;20087;-26
2022/07/13 11:56:51;;;;;;;5.63;2.10;;;25.70;1.00;;;;;;5055636;28;20049;-27
2022/07/13 11:59:35;;;;;;;;;;;25.80;99.90;;;;;;5036809;28;20057;-26
2022/07/13 12:02:02;;;;;;;6.05;1.80;;;26.00;1.00;;;;;;5063212;28;20397;-26
2022/07/13 12:04:28;;;;;;;5.32;2.03;;;26.50;99.90;;;;;;5046832;28;20059;-26
2022/07/13 12:07:16;;;;;;;4.13;1.55;;;26.90;1.00;;;;;;5054810;28;20128;-26
2022/07/13 12:09:56;;;;;;;4.47;1.33;;;27.00;1.00;;;;;;5054160;28;20056;-28
2022/07/13 12:12:25;;;;;;;6.70;2.05;;;26.00;1.00;;;;;;5054715;28;20057;-26
2022/07/13 12:14:53;;;;;;;2.88;2.08;;;25.60;99.90;;;;;;5053182;28;20084;-26
2022/07/13 12:17:19;;;;;;;6.90;2.30;;;25.50;99.90;;;;;;5053980;28;20065;-27
2022/07/13 12:19:45;;;;;;;5.38;1.92;;;25.00;1.00;;;;;;5054156;28;20052;-27
2022/07/13 12:22:11;;;;;;;8.55;2.38;;;24.70;53.20;;;;;;5029233;28;20457;-27
2022/07/13 12:24:43;;;;;;;8.80;2.38;;;24.50;99.90;;;;;;5073934;28;20037;-27
2022/07/13 12:27:09;;;;;;;4.32;1.80;;;24.30;1.00;;;;;;5073082;28;20041;-27
2022/07/13 12:29:35;;;;;;;8.27;3.03;;;24.50;1.00;;;;;;5073900;28;20051;-26
2022/07/13 12:32:02;;;;;;;7.50;1.92;;;24.30;1.00;;;;;;5068745;28;20282;-26
2022/07/13 12:34:29;;;;;;;8.10;2.58;;;24.30;24.80;;;;;;5052540;28;20399;-26
2022/07/13 12:36:54;;;;;;;6.50;1.75;;;24.90;1.00;;;;;;5053818;28;20084;-26
2022/07/13 12:39:40;;;;;;;5.65;2.15;;;25.30;1.00;;;;;;5052590;28;20091;-26
2022/07/13 12:42:07;;;;;;;6.35;2.50;;;25.40;99.90;;;;;;5053320;28;20080;-27
2022/07/13 12:44:33;;;;;;;6.53;2.08;;;25.20;99.90;;;;;;5056586;28;20045;-26
2022/07/13 12:47:02;;;;;;;7.07;2.30;;;25.30;99.90;;;;;;5052452;28;20048;-27
2022/07/13 12:49:35;;;;;;;10.30;2.17;;;25.90;99.90;;;;;;5053626;28;20057;-26
2022/07/13 12:52:09;;;;;;;5.47;2.00;;;26.00;1.00;;;;;;5053582;28;20045;-26
2022/07/13 12:54:50;;;;;;;6.10;1.63;;;25.80;1.00;;;;;;5053288;28;20049;-26